createdAt,value
2023-02-08T00:01:08.085Z,66.47
2023-02-08T00:03:37.295Z,61.27
2023-02-08T00:06:06.223Z,55.60
2023-02-08T00:08:36.099Z,61.87
2023-02-08T00:11:04.073Z,59.20
2023-02-08T00:13:31.865Z,52.20
2023-02-08T00:16:00.053Z,62.63
2023-02-08T00:18:27.791Z,58.87
2023-02-08T00:20:57.357Z,61.17
2023-02-08T00:23:25.557Z,60.00
2023-02-08T00:25:55.901Z,61.50
2023-02-08T00:28:23.725Z,60.20
2023-02-08T00:30:51.689Z,60.50
2023-02-08T00:33:19.494Z,55.27
2023-02-08T00:35:47.413Z,62.93
2023-02-08T00:38:16.623Z,53.57
2023-02-08T00:40:44.392Z,57.43
2023-02-08T00:43:12.194Z,49.37
2023-02-08T00:45:40.087Z,49.43
2023-02-08T00:48:07.914Z,63.30
2023-02-08T00:50:35.867Z,55.67
2023-02-08T00:53:03.737Z,58.90
2023-02-08T00:55:32.977Z,53.43
2023-02-08T00:58:00.834Z,56.13
2023-02-08T01:00:28.985Z,56.13
2023-02-08T01:02:56.876Z,52.37
2023-02-08T01:05:24.732Z,52.30
2023-02-08T01:07:52.619Z,49.57
2023-02-08T01:10:20.654Z,49.90
2023-02-08T01:12:49.873Z,54.70
2023-02-08T01:15:17.833Z,51.60
2023-02-08T01:17:45.627Z,50.00
2023-02-08T01:20:13.469Z,50.30
2023-02-08T01:22:41.279Z,50.10
2023-02-08T01:25:09.359Z,51.27
2023-02-08T01:27:37.158Z,48.37
2023-02-08T01:30:06.970Z,42.50
2023-02-08T01:32:34.803Z,50.73
2023-02-08T01:35:02.560Z,49.97
2023-02-08T01:37:30.323Z,51.90
2023-02-08T01:39:58.210Z,48.83
2023-02-08T01:42:26.007Z,49.27
2023-02-08T01:45:29.928Z,47.17
2023-02-08T01:48:09.665Z,48.00
2023-02-08T01:50:43.938Z,43.37
2023-02-08T01:53:12.428Z,54.23
2023-02-08T01:55:48.280Z,54.80
2023-02-08T01:58:19.023Z,51.73
2023-02-08T02:00:49.142Z,50.97
2023-02-08T02:03:17.297Z,53.13
2023-02-08T02:05:48.606Z,48.30
2023-02-08T02:08:17.243Z,52.07
2023-02-08T02:10:45.146Z,56.33
2023-02-08T02:13:15.702Z,53.13
2023-02-08T02:15:45.052Z,49.27
2023-02-08T02:18:21.031Z,50.20
2023-02-08T02:21:26.453Z,53.03
2023-02-08T02:24:13.201Z,52.67
2023-02-08T02:27:18.990Z,50.43
2023-02-08T02:30:10.289Z,54.23
2023-02-08T02:32:56.351Z,57.00
2023-02-08T02:35:34.130Z,60.90
2023-02-08T02:38:11.394Z,56.17
2023-02-08T02:40:50.818Z,60.50
2023-02-08T02:43:41.586Z,60.53
2023-02-08T02:46:22.982Z,57.27
2023-02-08T02:48:59.924Z,60.60
2023-02-08T02:51:31.778Z,58.57
2023-02-08T02:54:07.816Z,64.37
2023-02-08T02:56:39.586Z,56.57
2023-02-08T02:59:10.509Z,62.30
2023-02-08T03:01:39.296Z,58.27
2023-02-08T03:04:15.773Z,61.03
2023-02-08T03:06:58.136Z,59.33
2023-02-08T03:09:49.208Z,56.33
2023-02-08T03:12:31.012Z,51.87
2023-02-08T03:15:07.556Z,52.97
2023-02-08T03:17:49.503Z,58.13
2023-02-08T03:20:23.649Z,56.03
2023-02-08T03:23:01.440Z,55.67
2023-02-08T03:25:36.413Z,50.60
2023-02-08T03:28:09.618Z,53.07
2023-02-08T03:30:45.897Z,52.57
2023-02-08T03:33:17.353Z,52.97
2023-02-08T03:35:51.142Z,53.93
2023-02-08T03:38:23.795Z,52.20
2023-02-08T03:40:55.509Z,54.93
2023-02-08T03:43:27.125Z,48.23
2023-02-08T03:45:59.878Z,55.33
2023-02-08T03:48:29.432Z,52.63
2023-02-08T03:51:01.629Z,47.07
2023-02-08T03:53:32.467Z,52.50
2023-02-08T03:56:05.024Z,51.90
2023-02-08T03:58:35.629Z,50.23
2023-02-08T04:01:08.888Z,47.30
2023-02-08T04:03:37.757Z,44.60
2023-02-08T04:06:07.562Z,45.97
2023-02-08T04:08:35.314Z,42.73
2023-02-08T04:11:03.144Z,50.20
2023-02-08T04:13:30.926Z,50.90
2023-02-08T04:15:58.713Z,40.53
2023-02-08T04:18:26.575Z,45.77
2023-02-08T04:20:54.429Z,49.10
2023-02-08T04:23:23.594Z,44.30
2023-02-08T04:25:51.413Z,44.70
2023-02-08T04:28:19.224Z,47.07
2023-02-08T04:30:47.340Z,42.67
2023-02-08T04:33:15.324Z,48.07
2023-02-08T04:35:43.488Z,46.70
2023-02-08T04:38:11.366Z,48.10
2023-02-08T04:40:40.865Z,48.50
2023-02-08T04:43:08.919Z,46.20
2023-02-08T04:45:37.757Z,48.63
2023-02-08T04:48:07.419Z,46.03
2023-02-08T04:50:36.047Z,44.67
2023-02-08T04:53:04.117Z,44.53
2023-02-08T04:55:32.100Z,45.03
2023-02-08T04:58:01.283Z,41.47
2023-02-08T05:00:29.372Z,44.63
2023-02-08T05:02:58.627Z,47.97
2023-02-08T05:05:27.551Z,45.43
2023-02-08T05:07:55.481Z,42.50
2023-02-08T05:10:23.509Z,39.97
2023-02-08T05:12:51.367Z,35.80
2023-02-08T05:15:20.719Z,38.10
2023-02-08T05:17:48.634Z,34.07
2023-02-08T05:20:16.498Z,21.97
2023-02-08T05:22:44.282Z,24.10
2023-02-08T05:25:12.060Z,25.50
2023-02-08T05:27:40.076Z,43.67
2023-02-08T05:30:08.933Z,48.97
2023-02-08T05:32:38.158Z,48.53
2023-02-08T05:35:06.449Z,28.67
2023-02-08T05:37:34.221Z,40.17
2023-02-08T05:40:02.136Z,46.60
2023-02-08T05:42:29.966Z,46.10
2023-02-08T05:44:57.882Z,47.73
2023-02-08T05:47:25.826Z,45.57
2023-02-08T05:49:55.092Z,44.40
2023-02-08T05:52:22.915Z,54.73
2023-02-08T05:54:55.114Z,46.40
2023-02-08T05:57:23.045Z,46.97
2023-02-08T05:59:54.871Z,53.40
2023-02-08T06:02:22.741Z,47.03
2023-02-08T06:04:50.671Z,49.80
2023-02-08T06:07:22.605Z,47.80
2023-02-08T06:09:50.721Z,57.57
2023-02-08T06:12:18.928Z,47.67
2023-02-08T06:14:47.554Z,45.63
2023-02-08T06:17:15.435Z,47.80
2023-02-08T06:19:43.187Z,47.87
2023-02-08T06:22:10.998Z,49.17
2023-02-08T06:24:40.320Z,34.77
2023-02-08T06:27:08.238Z,33.57
2023-02-08T06:29:36.306Z,32.77
2023-02-08T06:32:04.362Z,38.93
2023-02-08T06:34:32.190Z,49.87
2023-02-08T06:37:02.168Z,53.13
2023-02-08T06:39:30.850Z,53.83
2023-02-08T06:42:00.167Z,49.17
2023-02-08T06:44:28.154Z,52.13
2023-02-08T06:46:55.929Z,58.17
2023-02-08T06:49:23.721Z,53.07
2023-02-08T06:51:51.602Z,58.07
2023-02-08T06:54:19.599Z,57.67
2023-02-08T06:56:47.421Z,66.40
2023-02-08T06:59:16.586Z,61.57
2023-02-08T07:01:44.340Z,56.67
2023-02-08T07:04:12.100Z,51.13
2023-02-08T07:06:40.031Z,42.33
2023-02-08T07:09:08.327Z,55.37
2023-02-08T07:11:36.203Z,54.13
2023-02-08T07:14:03.923Z,47.17
2023-02-08T07:16:33.254Z,54.63
2023-02-08T07:19:01.084Z,53.60
2023-02-08T07:21:28.962Z,56.03
2023-02-08T07:23:58.076Z,53.20
2023-02-08T07:26:26.076Z,49.47
2023-02-08T07:28:53.988Z,54.93
2023-02-08T07:31:21.817Z,64.10
2023-02-08T07:33:51.157Z,62.50
2023-02-08T07:36:19.047Z,55.17
2023-02-08T07:38:46.917Z,62.27
2023-02-08T07:41:16.696Z,57.80
2023-02-08T07:43:44.768Z,52.67
2023-02-08T07:46:14.909Z,62.23
2023-02-08T07:48:42.947Z,51.77
2023-02-08T07:51:13.575Z,48.83
2023-02-08T07:53:41.445Z,55.23
2023-02-08T07:56:10.348Z,55.07
2023-02-08T07:58:38.506Z,47.57
2023-02-08T08:01:20.000Z,47.10
2023-02-08T08:03:49.895Z,45.23
2023-02-08T08:06:19.402Z,29.07
2023-02-08T08:08:47.730Z,41.97
2023-02-08T08:11:16.561Z,38.47
2023-02-08T08:13:44.452Z,44.37
2023-02-08T08:16:12.358Z,42.00
2023-02-08T08:18:40.616Z,45.97
2023-02-08T08:21:09.309Z,40.27
2023-02-08T08:23:38.782Z,47.77
2023-02-08T08:26:11.254Z,41.97
2023-02-08T08:28:39.162Z,47.73
2023-02-08T08:31:11.426Z,41.40
2023-02-08T08:33:40.753Z,43.03
2023-02-08T08:36:09.668Z,40.27
2023-02-08T08:38:40.922Z,25.90
2023-02-08T08:41:09.996Z,38.37
2023-02-08T08:43:37.780Z,29.07
2023-02-08T08:46:06.887Z,38.60
2023-02-08T08:48:35.155Z,30.13
2023-02-08T08:51:03.665Z,37.97
2023-02-08T08:53:31.533Z,40.70
2023-02-08T08:56:00.766Z,33.13
2023-02-08T08:58:28.588Z,36.07
2023-02-08T09:00:57.450Z,39.07
2023-02-08T09:03:25.480Z,41.97
2023-02-08T09:05:54.957Z,34.67
2023-02-08T09:08:22.841Z,36.93
2023-02-08T09:10:51.006Z,38.20
2023-02-08T09:13:21.320Z,36.30
2023-02-08T09:15:49.916Z,34.97
2023-02-08T09:18:18.239Z,26.40
2023-02-08T09:20:46.313Z,33.03
2023-02-08T09:23:15.205Z,26.83
2023-02-08T09:25:43.077Z,35.83
2023-02-08T09:28:11.116Z,35.33
2023-02-08T09:30:41.532Z,27.47
2023-02-08T09:33:09.630Z,30.43
2023-02-08T09:35:37.598Z,33.07
2023-02-08T09:38:05.733Z,31.60
2023-02-08T09:40:43.069Z,32.10
2023-02-08T09:43:17.879Z,32.47
2023-02-08T09:46:00.300Z,36.60
2023-02-08T09:48:33.353Z,29.80
2023-02-08T09:51:07.200Z,26.50
2023-02-08T09:53:39.651Z,21.23
2023-02-08T09:56:12.544Z,29.23
2023-02-08T09:58:42.862Z,22.57
2023-02-08T10:01:19.352Z,27.33
2023-02-08T10:03:49.025Z,24.73
2023-02-08T10:06:21.539Z,26.50
2023-02-08T10:08:52.474Z,32.27
2023-02-08T10:11:36.232Z,24.97
2023-02-08T10:14:31.178Z,28.40
2023-02-08T10:17:11.133Z,27.00
2023-02-08T10:19:50.563Z,22.27
2023-02-08T10:22:29.092Z,19.83
2023-02-08T10:25:14.079Z,30.43
2023-02-08T10:27:53.314Z,26.27
2023-02-08T10:30:29.415Z,26.90
2023-02-08T10:33:02.793Z,25.97
2023-02-08T10:35:37.226Z,24.37
2023-02-08T10:38:37.184Z,26.70
2023-02-08T10:41:21.003Z,25.60
2023-02-08T10:43:54.550Z,22.90
2023-02-08T10:46:28.879Z,29.90
2023-02-08T10:49:08.234Z,20.67
2023-02-08T10:51:36.109Z,25.53
2023-02-08T10:54:04.421Z,20.83
2023-02-08T10:56:45.227Z,24.87
2023-02-08T10:59:21.087Z,23.83
2023-02-08T11:01:50.651Z,25.83
2023-02-08T11:04:20.630Z,25.90
2023-02-08T11:06:49.873Z,23.43
2023-02-08T11:09:24.246Z,23.60
2023-02-08T11:11:53.632Z,18.57
2023-02-08T11:14:30.400Z,19.10
2023-02-08T11:17:05.883Z,20.13
2023-02-08T11:19:42.487Z,17.40
2023-02-08T11:22:16.999Z,16.00
2023-02-08T11:24:50.608Z,21.57
2023-02-08T11:27:30.022Z,18.43
2023-02-08T11:30:19.768Z,15.43
2023-02-08T11:32:50.403Z,20.53
2023-02-08T11:35:24.016Z,21.53
2023-02-08T11:37:53.799Z,20.20
2023-02-08T11:40:24.561Z,14.57
2023-02-08T11:42:56.576Z,13.30
2023-02-08T11:45:26.682Z,18.90
2023-02-08T11:47:55.561Z,17.50
2023-02-08T11:50:28.287Z,13.90
2023-02-08T11:52:59.501Z,15.17
2023-02-08T11:55:30.122Z,15.40
2023-02-08T11:58:01.688Z,14.07
2023-02-08T12:00:31.918Z,18.47
2023-02-08T12:03:01.825Z,11.73
2023-02-08T12:05:41.639Z,14.13
2023-02-08T12:08:18.938Z,12.60
2023-02-08T12:11:08.643Z,14.83
2023-02-08T12:13:54.766Z,12.30
2023-02-08T12:16:50.552Z,15.67
2023-02-08T12:19:47.264Z,18.33
2023-02-08T12:22:20.083Z,14.10
2023-02-08T12:24:52.417Z,15.87
2023-02-08T12:27:36.350Z,13.27
2023-02-08T12:30:12.041Z,14.93
2023-02-08T12:32:56.672Z,13.57
2023-02-08T12:36:03.680Z,12.17
2023-02-08T12:39:19.882Z,15.20
2023-02-08T12:42:03.992Z,7.63
2023-02-08T12:44:42.881Z,10.07
2023-02-08T12:47:27.471Z,11.87
2023-02-08T12:50:07.080Z,12.03
2023-02-08T12:52:38.984Z,9.97
2023-02-08T12:55:17.309Z,6.93
2023-02-08T12:57:50.086Z,10.43
2023-02-08T13:00:22.870Z,9.40
2023-02-08T13:02:58.990Z,9.43
2023-02-08T13:05:31.712Z,8.87
2023-02-08T13:08:04.758Z,10.93
2023-02-08T13:10:37.441Z,12.63
2023-02-08T13:13:14.119Z,12.30
2023-02-08T13:15:46.492Z,12.13
2023-02-08T13:18:19.657Z,10.70
2023-02-08T13:20:50.730Z,12.83
2023-02-08T13:23:24.344Z,9.27
2023-02-08T13:25:57.526Z,11.67
2023-02-08T13:28:27.140Z,12.30
2023-02-08T13:31:00.619Z,26.83
2023-02-08T13:33:37.400Z,14.80
2023-02-08T13:36:06.128Z,13.57
2023-02-08T13:38:35.922Z,19.33
2023-02-08T13:41:16.221Z,17.50
2023-02-08T13:43:49.745Z,17.67
2023-02-08T13:46:19.093Z,18.17
2023-02-08T13:48:49.878Z,16.87
2023-02-08T13:52:02.309Z,19.97
2023-02-08T13:54:30.658Z,12.43
2023-02-08T13:57:00.012Z,21.13
2023-02-08T13:59:35.188Z,44.97
2023-02-08T14:02:24.474Z,27.83
2023-02-08T14:04:57.765Z,28.03
2023-02-08T14:07:42.393Z,22.70
2023-02-08T14:10:27.727Z,20.43
2023-02-08T14:13:03.009Z,14.93
2023-02-08T14:15:38.589Z,19.57
2023-02-08T14:18:22.688Z,17.30
2023-02-08T14:21:01.831Z,17.87
2023-02-08T14:23:32.596Z,16.60
2023-02-08T14:26:09.012Z,11.63
2023-02-08T14:28:41.565Z,19.93
2023-02-08T14:31:12.317Z,8.77
2023-02-08T14:33:43.301Z,27.60
2023-02-08T14:36:27.106Z,12.77
2023-02-08T14:39:23.786Z,13.00
2023-02-08T14:42:00.096Z,13.73
2023-02-08T14:45:05.872Z,18.43
2023-02-08T14:48:07.965Z,17.03
2023-02-08T14:50:43.466Z,17.43
2023-02-08T14:53:24.670Z,17.87
2023-02-08T14:55:57.438Z,15.67
2023-02-08T14:58:31.808Z,20.50
2023-02-08T15:01:07.304Z,14.00
2023-02-08T15:03:36.679Z,14.33
2023-02-08T15:06:34.845Z,16.63
2023-02-08T15:09:03.179Z,20.43
2023-02-08T15:11:33.171Z,16.77
2023-02-08T15:14:03.799Z,16.50
2023-02-08T15:16:36.583Z,16.37
2023-02-08T15:19:06.278Z,14.60
2023-02-08T15:21:37.212Z,15.20
2023-02-08T15:24:14.308Z,13.27
2023-02-08T15:26:46.727Z,13.33
2023-02-08T15:29:26.176Z,13.67
2023-02-08T15:31:59.576Z,13.43
2023-02-08T15:34:31.550Z,14.13
2023-02-08T15:36:59.612Z,15.83
2023-02-08T15:39:35.076Z,17.87
2023-02-08T15:42:04.534Z,15.57
2023-02-08T15:44:35.001Z,20.40
2023-02-08T15:47:06.680Z,16.80
2023-02-08T15:49:37.798Z,16.20
2023-02-08T15:52:07.480Z,14.43
2023-02-08T15:54:35.703Z,19.20
2023-02-08T15:57:08.437Z,20.60
2023-02-08T15:59:39.583Z,18.13
2023-02-08T16:02:24.397Z,19.10
2023-02-08T16:04:52.634Z,21.13
2023-02-08T16:07:27.057Z,23.37
2023-02-08T16:09:55.880Z,23.33
2023-02-08T16:12:25.671Z,20.13
2023-02-08T16:14:59.705Z,20.77
2023-02-08T16:17:51.007Z,22.73
2023-02-08T16:20:25.578Z,28.17
2023-02-08T16:23:04.118Z,21.73
2023-02-08T16:25:49.263Z,24.80
2023-02-08T16:28:28.197Z,22.40
2023-02-08T16:30:57.795Z,19.93
2023-02-08T16:33:27.972Z,24.80
2023-02-08T16:36:01.746Z,18.97
2023-02-08T16:38:31.677Z,25.43
2023-02-08T16:41:12.031Z,27.60
2023-02-08T16:43:44.073Z,28.80
2023-02-08T16:46:25.874Z,28.77
2023-02-08T16:48:57.063Z,23.83
2023-02-08T16:51:27.597Z,26.37
2023-02-08T16:53:58.073Z,25.20
2023-02-08T16:56:26.171Z,48.93
2023-02-08T16:59:00.823Z,36.40
2023-02-08T17:01:33.277Z,40.53
2023-02-08T17:04:02.626Z,48.67
2023-02-08T17:06:32.511Z,36.53
2023-02-08T17:09:01.608Z,38.47
2023-02-08T17:11:30.107Z,24.53
2023-02-08T17:13:58.631Z,33.03
2023-02-08T17:16:28.569Z,37.10
2023-02-08T17:18:56.747Z,35.50
2023-02-08T17:21:26.121Z,32.63
2023-02-08T17:23:54.026Z,36.20
2023-02-08T17:26:24.137Z,36.83
2023-02-08T17:28:52.175Z,26.17
2023-02-08T17:31:20.162Z,24.97
2023-02-08T17:33:48.333Z,31.87
2023-02-08T17:36:17.070Z,39.47
2023-02-08T17:38:47.862Z,40.37
2023-02-08T17:41:18.419Z,40.20
2023-02-08T17:43:46.702Z,30.03
2023-02-08T17:46:17.760Z,22.90
2023-02-08T17:48:48.206Z,28.83
2023-02-08T17:51:18.292Z,27.47
2023-02-08T17:53:47.669Z,46.53
2023-02-08T17:56:18.066Z,38.10
2023-02-08T17:58:48.923Z,37.23
2023-02-08T18:01:22.542Z,28.27
2023-02-08T18:03:51.943Z,58.87
2023-02-08T18:06:20.711Z,40.23
2023-02-08T18:08:49.900Z,35.53
2023-02-08T18:11:20.267Z,44.13
2023-02-08T18:13:49.230Z,32.57
2023-02-08T18:16:20.271Z,48.13
2023-02-08T18:18:48.181Z,33.90
2023-02-08T18:21:17.806Z,35.73
2023-02-08T18:23:46.138Z,51.03
2023-02-08T18:26:18.051Z,52.90
2023-02-08T18:28:46.441Z,40.00
2023-02-08T18:31:17.421Z,34.03
2023-02-08T18:33:45.297Z,55.43
2023-02-08T18:36:13.812Z,37.97
2023-02-08T18:38:45.494Z,54.50
2023-02-08T18:41:17.156Z,46.73
2023-02-08T18:43:45.349Z,35.47
2023-02-08T18:46:16.298Z,41.17
2023-02-08T18:48:44.897Z,43.13
2023-02-08T18:51:14.529Z,36.50
2023-02-08T18:53:43.416Z,54.37
2023-02-08T18:56:12.979Z,48.97
2023-02-08T18:58:42.535Z,32.93
2023-02-08T19:01:13.514Z,60.90
2023-02-08T19:03:41.685Z,35.97
2023-02-08T19:06:11.847Z,27.63
2023-02-08T19:08:42.618Z,40.63
2023-02-08T19:11:16.627Z,36.43
2023-02-08T19:13:46.348Z,55.90
2023-02-08T19:16:15.473Z,47.83
2023-02-08T19:18:43.243Z,49.20
2023-02-08T19:21:13.612Z,59.57
2023-02-08T19:23:41.610Z,42.03
2023-02-08T19:26:14.748Z,36.20
2023-02-08T19:28:42.714Z,50.77
2023-02-08T19:31:16.134Z,43.70
2023-02-08T19:33:46.411Z,49.93
2023-02-08T19:36:16.494Z,54.30
2023-02-08T19:38:44.567Z,41.57
2023-02-08T19:41:16.723Z,56.00
2023-02-08T19:43:44.769Z,50.63
2023-02-08T19:46:15.881Z,49.33
2023-02-08T19:48:43.901Z,54.17
2023-02-08T19:51:11.875Z,52.73
2023-02-08T19:53:39.688Z,52.70
2023-02-08T19:56:09.392Z,46.80
2023-02-08T19:58:38.000Z,45.40
2023-02-08T20:01:10.268Z,59.23
2023-02-08T20:03:39.629Z,65.93
2023-02-08T20:06:14.598Z,57.63
2023-02-08T20:08:42.450Z,60.17
2023-02-08T20:11:21.459Z,53.33
2023-02-08T20:13:49.727Z,51.27
2023-02-08T20:16:17.957Z,50.97
2023-02-08T20:18:47.252Z,58.97
2023-02-08T20:21:15.299Z,51.73
2023-02-08T20:23:43.332Z,47.87
2023-02-08T20:26:13.144Z,57.10
2023-02-08T20:28:44.225Z,51.07
2023-02-08T20:31:13.688Z,56.33
2023-02-08T20:33:41.568Z,57.13
2023-02-08T20:36:13.962Z,61.67
2023-02-08T20:38:42.204Z,53.23
2023-02-08T20:41:11.989Z,52.43
2023-02-08T20:43:41.179Z,53.57
2023-02-08T20:46:13.480Z,51.53
2023-02-08T20:48:41.549Z,49.97
2023-02-08T20:51:12.907Z,47.27
2023-02-08T20:53:42.315Z,29.87
2023-02-08T20:56:12.371Z,38.80
2023-02-08T20:58:40.672Z,48.47
2023-02-08T21:01:08.941Z,47.37
2023-02-08T21:03:37.262Z,46.90
2023-02-08T21:06:14.926Z,46.70
2023-02-08T21:08:43.245Z,42.77
2023-02-08T21:11:12.066Z,49.87
2023-02-08T21:13:40.051Z,41.97
2023-02-08T21:16:08.385Z,42.47
2023-02-08T21:18:37.013Z,46.77
2023-02-08T21:21:05.351Z,50.97
2023-02-08T21:23:36.122Z,46.43
2023-02-08T21:26:05.854Z,44.90
2023-02-08T21:28:34.961Z,49.67
2023-02-08T21:31:06.170Z,46.23
2023-02-08T21:33:34.493Z,42.27
2023-02-08T21:36:03.555Z,42.67
2023-02-08T21:38:31.721Z,42.67
2023-02-08T21:41:00.919Z,45.07
2023-02-08T21:43:28.636Z,43.80
2023-02-08T21:45:56.428Z,47.03
2023-02-08T21:48:24.213Z,48.30
2023-02-08T21:51:09.553Z,44.40
2023-02-08T21:53:54.739Z,44.23
2023-02-08T21:56:23.839Z,41.33
2023-02-08T21:58:51.729Z,38.63
2023-02-08T22:01:19.579Z,46.67
2023-02-08T22:03:47.425Z,41.97
2023-02-08T22:06:32.824Z,40.83
2023-02-08T22:09:00.660Z,44.93
2023-02-08T22:11:29.862Z,38.27
2023-02-08T22:13:57.692Z,42.60
2023-02-08T22:16:25.444Z,44.50
2023-02-08T22:18:53.513Z,42.73
2023-02-08T22:21:21.252Z,40.33
2023-02-08T22:23:49.039Z,46.47
2023-02-08T22:26:16.875Z,43.07
2023-02-08T22:28:46.194Z,45.60
2023-02-08T22:31:15.199Z,46.73
2023-02-08T22:33:43.415Z,46.40
2023-02-08T22:36:12.734Z,40.57
2023-02-08T22:38:40.769Z,45.37
2023-02-08T22:41:12.005Z,40.40
2023-02-08T22:43:40.225Z,46.37
2023-02-08T22:46:09.435Z,42.97
2023-02-08T22:48:37.518Z,44.67
2023-02-08T22:51:09.007Z,38.90
2023-02-08T22:53:36.910Z,42.10
2023-02-08T22:56:05.476Z,44.93
2023-02-08T22:58:33.258Z,39.07
2023-02-08T23:01:01.147Z,40.47
2023-02-08T23:03:30.323Z,43.83
2023-02-08T23:05:58.120Z,43.47
2023-02-08T23:08:25.851Z,44.57
2023-02-08T23:10:59.612Z,43.53
2023-02-08T23:13:27.387Z,45.33
2023-02-08T23:15:55.259Z,45.73
2023-02-08T23:18:24.125Z,41.53
2023-02-08T23:20:54.549Z,43.77
2023-02-08T23:23:22.540Z,49.70
2023-02-08T23:25:50.349Z,43.83
2023-02-08T23:28:18.171Z,42.27
2023-02-08T23:30:46.812Z,40.93
2023-02-08T23:33:14.770Z,44.53
2023-02-08T23:35:42.689Z,38.83
2023-02-08T23:38:11.731Z,38.37
2023-02-08T23:40:41.087Z,42.70
2023-02-08T23:43:09.278Z,38.90
2023-02-08T23:45:37.760Z,43.17
2023-02-08T23:48:05.646Z,40.87
2023-02-08T23:50:33.399Z,45.50
2023-02-08T23:53:01.099Z,40.10
2023-02-08T23:55:30.721Z,44.77
2023-02-08T23:57:58.470Z,41.30
